Time;durP1;ratioP1;P1;durP2;ratioP2;P2;SDS_P1;SDS_P2;PMS_P1;PMS_P2;Temp;Humidity;BMP_temperature;BMP_pressure;BME280_temperature;BME280_humidity;BME280_pressure;Samples;Min_cycle;Max_cycle;Signal;HPM_P1;HPM_P2
2023/06/03 00:00:52;;;;;;;12.52;9.32;;;;;;;20.19;90.09;99411.06;5124975;27;20052;-65
2023/06/03 00:03:18;;;;;;;10.93;9.23;;;;;;;20.19;89.21;99409.19;5122819;27;20046;-65
2023/06/03 00:05:44;;;;;;;12.77;10.50;;;;;;;20.21;88.12;99415.16;5120325;27;20106;-65
2023/06/03 00:08:09;;;;;;;13.90;11.18;;;;;;;19.88;87.31;99417.53;5123144;27;20028;-65
2023/06/03 00:10:35;;;;;;;14.05;10.93;;;;;;;19.81;87.04;99425.72;5121992;27;20027;-65
2023/06/03 00:13:00;;;;;;;13.95;10.98;;;;;;;19.69;87.41;99428.34;5122963;27;20206;-65
2023/06/03 00:15:26;;;;;;;18.55;11.30;;;;;;;19.80;86.10;99424.06;5122653;27;20038;-65
2023/06/03 00:17:51;;;;;;;16.13;11.27;;;;;;;19.87;86.56;99424.78;5121412;27;20042;-65
2023/06/03 00:20:17;;;;;;;16.50;11.15;;;;;;;19.98;87.78;99425.88;5119802;27;20031;-65
2023/06/03 00:22:43;;;;;;;15.15;11.00;;;;;;;19.99;84.78;99425.63;5123214;27;20035;-65
2023/06/03 00:25:11;;;;;;;14.77;10.63;;;;;;;19.94;83.86;99435.44;5121284;27;20097;-65
2023/06/03 00:27:37;;;;;;;15.35;11.20;;;;;;;19.79;85.57;99440.41;5122324;27;20340;-65
2023/06/03 00:30:04;;;;;;;14.13;11.07;;;;;;;19.82;85.79;99439.97;5119653;27;20027;-65
2023/06/03 00:32:30;;;;;;;16.17;11.82;;;;;;;19.83;86.16;99442.41;5125181;27;20067;-65
2023/06/03 00:34:55;;;;;;;12.27;10.38;;;;;;;19.83;85.85;99446.97;5121475;27;20104;-65
2023/06/03 00:37:21;;;;;;;15.02;9.70;;;;;;;19.80;85.55;99436.69;5118394;27;20050;-65
2023/06/03 00:39:46;;;;;;;13.77;10.10;;;;;;;19.76;85.58;99442.47;5120611;27;20039;-65
2023/06/03 00:42:12;;;;;;;12.65;9.60;;;;;;;19.75;85.20;99438.16;5120056;27;20113;-65
2023/06/03 00:44:37;;;;;;;12.95;10.35;;;;;;;19.72;86.01;99438.63;5122057;27;20032;-65
2023/06/03 00:47:03;;;;;;;16.02;11.10;;;;;;;19.68;85.60;99445.50;5118285;27;20069;-65
2023/06/03 00:49:29;;;;;;;15.82;11.57;;;;;;;19.66;86.43;99446.78;5118957;28;20039;-65
2023/06/03 00:51:55;;;;;;;14.80;10.77;;;;;;;19.65;85.57;99437.91;5127159;27;20137;-65
2023/06/03 00:54:21;;;;;;;14.73;11.40;;;;;;;19.67;86.19;99443.03;5120826;28;20120;-65
2023/06/03 00:56:47;;;;;;;19.23;11.85;;;;;;;19.64;84.93;99441.63;5118278;28;20061;-65
2023/06/03 00:59:17;;;;;;;16.27;12.23;;;;;;;19.54;85.42;99437.84;5119044;28;20281;-65
2023/06/03 01:01:43;;;;;;;15.05;11.07;;;;;;;19.51;86.00;99440.97;5122289;27;20043;-65
2023/06/03 01:04:16;;;;;;;15.57;11.02;;;;;;;19.50;85.73;99442.81;5121157;28;20024;-65
2023/06/03 01:07:07;;;;;;;14.20;10.05;;;;;;;19.64;85.55;99444.31;5119037;28;20237;-65
2023/06/03 01:09:40;;;;;;;12.30;9.77;;;;;;;19.68;83.79;99442.81;5096545;28;20319;-65
2023/06/03 01:12:14;;;;;;;15.20;10.30;;;;;;;19.71;84.93;99438.84;5129063;28;20377;-65
2023/06/03 01:14:48;;;;;;;15.02;10.30;;;;;;;19.73;83.15;99437.56;5119563;28;20039;-64
2023/06/03 01:17:16;;;;;;;14.85;9.88;;;;;;;19.72;83.89;99433.25;5123064;28;20047;-64
2023/06/03 01:19:48;;;;;;;11.20;9.98;;;;;;;19.73;82.24;99432.19;5122040;28;20235;-65
2023/06/03 01:22:20;;;;;;;12.75;10.25;;;;;;;19.67;82.32;99427.75;5122880;27;20043;-65
2023/06/03 01:24:48;;;;;;;14.88;10.13;;;;;;;19.72;81.39;99437.78;5122024;28;20047;-65
2023/06/03 01:27:14;;;;;;;16.02;11.73;;;;;;;19.68;81.43;99434.75;5122342;28;20105;-64
2023/06/03 01:29:41;;;;;;;15.18;10.75;;;;;;;19.65;82.11;99435.22;5121943;28;20331;-64
2023/06/03 01:32:15;;;;;;;17.75;11.20;;;;;;;19.62;81.91;99424.91;5120880;28;20107;-64
2023/06/03 01:34:41;;;;;;;13.52;9.93;;;;;;;19.54;81.75;99430.63;5118385;28;20031;-64
2023/06/03 01:37:10;;;;;;;12.43;8.50;;;;;;;19.10;82.33;99426.41;5123448;28;20188;-64
2023/06/03 01:39:39;;;;;;;11.35;8.88;;;;;;;19.16;83.01;99427.38;5121403;27;20043;-64
2023/06/03 01:42:06;;;;;;;10.43;7.82;;;;;;;18.94;83.13;99429.69;5119770;28;20032;-64
2023/06/03 01:44:32;;;;;;;12.00;8.95;;;;;;;19.12;83.00;99427.81;5118407;28;20341;-64
2023/06/03 01:46:57;;;;;;;11.77;8.27;;;;;;;19.16;83.37;99430.88;5120342;28;20043;-64
2023/06/03 01:49:24;;;;;;;10.70;8.35;;;;;;;19.31;83.12;99427.78;5120264;28;20043;-64
2023/06/03 01:51:49;;;;;;;9.45;7.63;;;;;;;19.43;83.21;99420.63;5119331;28;20069;-64
2023/06/03 01:54:15;;;;;;;8.82;7.80;;;;;;;19.51;81.61;99430.22;5121108;27;20099;-65
2023/06/03 01:56:41;;;;;;;12.70;9.43;;;;;;;19.39;82.23;99436.34;5118249;28;20044;-65
2023/06/03 01:59:06;;;;;;;10.55;8.45;;;;;;;19.38;82.43;99432.03;5119648;28;20042;-64
2023/06/03 02:01:32;;;;;;;11.18;8.85;;;;;;;19.42;83.10;99429.72;5124270;27;20032;-64
2023/06/03 02:03:57;;;;;;;10.25;9.13;;;;;;;19.47;82.94;99429.84;5121563;27;20036;-64
2023/06/03 02:06:23;;;;;;;14.27;9.90;;;;;;;19.45;83.11;99423.88;5122217;27;20039;-64
2023/06/03 02:08:48;;;;;;;14.23;10.13;;;;;;;19.28;83.69;99426.38;5122963;27;20324;-64
2023/06/03 02:11:14;;;;;;;13.90;10.55;;;;;;;18.98;83.98;99404.88;5125244;27;20035;-64
2023/06/03 02:13:39;;;;;;;12.02;9.57;;;;;;;19.19;84.39;99422.38;5124404;27;20347;-64
2023/06/03 02:16:05;;;;;;;11.02;8.95;;;;;;;19.20;84.63;99421.31;5123867;27;20031;-64
2023/06/03 02:18:31;;;;;;;12.50;8.98;;;;;;;19.19;84.18;99418.88;5120706;27;20036;-64
2023/06/03 02:20:57;;;;;;;15.55;10.05;;;;;;;19.10;84.26;99427.22;5126605;27;20038;-64
2023/06/03 02:23:23;;;;;;;12.05;10.25;;;;;;;19.05;84.59;99431.63;5126533;27;20050;-64
2023/06/03 02:25:48;;;;;;;15.88;10.88;;;;;;;19.00;85.60;99434.16;5123346;27;20027;-64
2023/06/03 02:28:16;;;;;;;15.00;10.40;;;;;;;18.94;86.05;99433.19;5124337;27;20031;-64
2023/06/03 02:30:43;;;;;;;13.18;10.15;;;;;;;18.97;85.87;99450.72;5124662;27;20056;-64
2023/06/03 02:33:09;;;;;;;14.93;10.90;;;;;;;18.91;86.26;99449.75;5122951;27;20095;-64
2023/06/03 02:35:35;;;;;;;16.10;10.50;;;;;;;18.81;86.84;99444.91;5125372;27;20050;-64
2023/06/03 02:38:00;;;;;;;14.82;11.15;;;;;;;18.86;87.70;99438.03;5121667;27;20031;-64
2023/06/03 02:40:26;;;;;;;14.38;11.32;;;;;;;18.92;87.68;99448.69;5121943;27;20064;-64
2023/06/03 02:42:51;;;;;;;16.70;11.20;;;;;;;18.95;88.30;99450.13;5131544;27;20326;-64
2023/06/03 02:45:16;;;;;;;16.13;11.05;;;;;;;18.97;87.34;99451.53;5122581;27;20035;-64
2023/06/03 02:47:42;;;;;;;14.88;11.82;;;;;;;18.95;86.95;99450.13;5126789;27;20043;-64
2023/06/03 02:50:08;;;;;;;16.13;11.48;;;;;;;18.98;87.37;99458.53;5128857;27;20283;-65
2023/06/03 02:52:34;;;;;;;15.88;11.45;;;;;;;18.97;87.02;99459.59;5124152;27;20905;-65
2023/06/03 02:55:00;;;;;;;14.45;11.35;;;;;;;19.03;87.06;99461.38;5121936;27;20031;-65
2023/06/03 02:57:26;;;;;;;14.82;10.57;;;;;;;19.05;87.17;99458.47;5123931;27;20094;-65
2023/06/03 02:59:52;;;;;;;13.50;11.48;;;;;;;19.09;87.26;99451.59;5121865;27;20059;-65
2023/06/03 03:02:19;;;;;;;15.65;11.10;;;;;;;19.07;86.59;99449.16;5126175;27;20318;-65
2023/06/03 03:04:44;;;;;;;14.55;10.95;;;;;;;19.05;87.06;99453.91;5120601;27;20386;-65
2023/06/03 03:07:10;;;;;;;15.95;11.60;;;;;;;19.14;87.29;99447.19;5124934;27;20035;-65
2023/06/03 03:09:38;;;;;;;14.18;11.80;;;;;;;19.16;86.33;99452.34;5124691;27;20043;-65
2023/06/03 03:12:04;;;;;;;18.45;12.05;;;;;;;19.10;87.14;99454.06;5123097;27;20051;-65
2023/06/03 03:14:30;;;;;;;14.98;10.45;;;;;;;19.13;87.63;99456.31;5122655;27;20042;-65
2023/06/03 03:16:55;;;;;;;15.85;11.18;;;;;;;19.15;88.20;99461.44;5125022;27;20058;-65
2023/06/03 03:19:21;;;;;;;14.50;10.85;;;;;;;19.17;87.42;99459.34;5124856;27;20042;-65
2023/06/03 03:21:46;;;;;;;16.50;11.75;;;;;;;19.10;87.21;99459.44;5123111;27;20077;-65
2023/06/03 03:24:13;;;;;;;15.18;10.82;;;;;;;19.16;87.76;99465.75;5122502;27;20051;-65
2023/06/03 03:26:38;;;;;;;15.15;10.15;;;;;;;18.94;88.04;99472.63;5121344;27;20047;-65
2023/06/03 03:29:05;;;;;;;15.00;11.23;;;;;;;18.98;88.39;99474.63;5121567;27;20027;-65
2023/06/03 03:31:31;;;;;;;14.13;10.20;;;;;;;19.07;87.59;99485.91;5124261;27;20023;-65
2023/06/03 03:33:56;;;;;;;16.85;10.45;;;;;;;19.07;88.18;99480.53;5130423;27;20051;-65
2023/06/03 03:36:22;;;;;;;13.55;10.57;;;;;;;19.11;88.04;99482.53;5123732;27;20100;-65
2023/06/03 03:38:59;;;;;;;13.20;10.65;;;;;;;19.08;87.26;99479.47;5124949;27;20035;-65
2023/06/03 03:41:25;;;;;;;16.63;10.88;;;;;;;19.03;87.93;99488.19;5123046;27;20035;-65
2023/06/03 03:43:51;;;;;;;16.45;10.20;;;;;;;19.00;89.05;99487.81;5121543;27;20035;-65
2023/06/03 03:46:17;;;;;;;15.77;9.57;;;;;;;18.99;88.50;99486.19;5121661;27;20648;-65
2023/06/03 03:48:42;;;;;;;14.73;9.88;;;;;;;18.98;89.32;99482.69;5124730;27;20051;-65
2023/06/03 03:51:08;;;;;;;13.80;9.27;;;;;;;18.97;88.79;99475.69;5124202;27;20028;-65
2023/06/03 03:53:35;;;;;;;14.27;9.85;;;;;;;18.97;88.41;99478.34;5122944;27;20080;-65
2023/06/03 03:56:01;;;;;;;11.52;9.30;;;;;;;19.03;88.11;99482.84;5122219;27;20043;-65
2023/06/03 03:58:43;;;;;;;14.90;10.05;;;;;;;19.09;89.02;99481.94;5119862;27;20059;-65
2023/06/03 04:01:21;;;;;;;12.10;9.00;;;;;;;19.25;87.82;99483.22;5122366;27;20334;-65
2023/06/03 04:03:52;;;;;;;12.07;9.30;;;;;;;19.41;86.70;99473.72;5122428;27;20063;-65
2023/06/03 04:06:36;;;;;;;12.77;9.27;;;;;;;19.38;85.32;99482.22;5118921;27;20023;-65
2023/06/03 04:09:03;;;;;;;10.65;8.82;;;;;;;19.32;85.34;99477.75;5123529;27;20039;-64
2023/06/03 04:11:30;;;;;;;12.30;8.88;;;;;;;19.37;86.21;99484.09;5122909;27;20276;-64
2023/06/03 04:13:58;;;;;;;11.90;9.32;;;;;;;19.49;84.19;99491.38;5121784;27;20236;-64
2023/06/03 04:17:02;;;;;;;11.13;8.68;;;;;;;19.65;83.48;99490.78;5119589;27;20360;-65
2023/06/03 04:19:41;;;;;;;15.13;8.75;;;;;;;19.77;81.82;99495.19;5122491;27;20116;-65
2023/06/03 04:22:08;;;;;;;10.80;8.73;;;;;;;19.73;81.66;99499.34;5123376;27;20019;-64
2023/06/03 04:24:35;;;;;;;9.77;8.60;;;;;;;19.67;81.87;99502.94;5117387;27;20154;-64
2023/06/03 04:27:06;;;;;;;11.80;8.15;;;;;;;19.59;81.68;99487.16;5119738;27;20337;-64
2023/06/03 04:29:32;;;;;;;11.50;8.48;;;;;;;19.77;82.22;99505.13;5120264;27;20101;-64
2023/06/03 04:31:57;;;;;;;12.20;8.68;;;;;;;19.85;82.85;99504.81;5119628;27;20032;-64
2023/06/03 04:34:27;;;;;;;12.13;8.73;;;;;;;19.99;82.01;99508.13;5120618;27;20344;-64
2023/06/03 04:36:52;;;;;;;11.73;8.75;;;;;;;20.04;82.26;99505.56;5120395;27;20254;-65
2023/06/03 04:39:18;;;;;;;9.90;7.72;;;;;;;20.00;82.17;99499.00;5119311;27;20058;-64
2023/06/03 04:41:44;;;;;;;11.30;7.53;;;;;;;19.98;82.76;99496.56;5120044;27;20031;-65
2023/06/03 04:44:11;;;;;;;12.70;7.72;;;;;;;19.97;82.68;99499.47;5119698;27;20116;-65
2023/06/03 04:46:37;;;;;;;8.88;7.57;;;;;;;20.02;83.25;99492.38;5122216;27;20127;-65
2023/06/03 04:49:03;;;;;;;11.32;7.93;;;;;;;20.12;82.46;99497.19;5121857;27;20258;-65
2023/06/03 04:51:33;;;;;;;11.25;7.53;;;;;;;20.25;82.85;99504.22;5119804;27;20035;-65
2023/06/03 04:54:00;;;;;;;9.63;7.82;;;;;;;20.26;81.43;99501.31;5119882;28;20074;-65
2023/06/03 04:56:28;;;;;;;10.80;8.55;;;;;;;20.44;81.10;99500.44;5123848;27;20250;-65
2023/06/03 04:58:55;;;;;;;11.02;8.70;;;;;;;20.54;81.19;99499.84;5123884;27;20035;-65
2023/06/03 05:01:25;;;;;;;16.13;10.90;;;;;;;20.49;81.69;99502.41;5121692;27;20038;-65
2023/06/03 05:03:51;;;;;;;40.22;27.55;;;;;;;20.61;81.79;99505.94;5119700;28;20070;-65
2023/06/03 05:06:17;;;;;;;38.33;28.85;;;;;;;20.65;80.90;99510.63;5120508;28;20062;-65
2023/06/03 05:08:42;;;;;;;22.48;20.13;;;;;;;20.56;79.59;99509.31;5127837;28;20321;-65
2023/06/03 05:11:09;;;;;;;14.05;10.40;;;;;;;20.60;80.59;99509.69;5119691;28;20035;-65
2023/06/03 05:13:34;;;;;;;14.43;9.45;;;;;;;20.83;78.69;99515.09;5123222;28;20112;-65
2023/06/03 05:16:00;;;;;;;14.77;13.27;;;;;;;20.91;79.86;99503.97;5119375;28;20039;-64
2023/06/03 05:18:26;;;;;;;14.80;12.00;;;;;;;21.14;78.94;99505.81;5121225;28;20051;-64
2023/06/03 05:20:51;;;;;;;10.82;8.77;;;;;;;21.14;79.49;99511.22;5122804;28;20039;-65
2023/06/03 05:23:16;;;;;;;15.25;12.13;;;;;;;21.39;77.33;99513.66;5128907;27;20731;-65
2023/06/03 05:25:42;;;;;;;11.05;9.73;;;;;;;21.52;77.57;99515.25;5120045;28;20321;-65
2023/06/03 05:28:07;;;;;;;13.18;10.80;;;;;;;21.49;79.17;99507.66;5122301;28;20268;-65
2023/06/03 05:30:33;;;;;;;11.27;9.23;;;;;;;21.46;79.22;99502.75;5121685;28;20028;-65
2023/06/03 05:32:58;;;;;;;11.00;9.65;;;;;;;21.54;81.27;99503.19;5120753;28;20329;-65
2023/06/03 05:35:24;;;;;;;18.13;14.85;;;;;;;21.75;81.45;99506.28;5119633;27;20043;-65
2023/06/03 05:37:49;;;;;;;10.85;8.95;;;;;;;21.72;77.88;99502.19;5123065;27;20032;-65
2023/06/03 05:40:15;;;;;;;10.57;8.82;;;;;;;21.68;76.38;99506.41;5124612;27;20198;-65
2023/06/03 05:42:41;;;;;;;10.02;9.02;;;;;;;21.96;77.15;99511.03;5122008;27;20027;-65
2023/06/03 05:45:07;;;;;;;13.52;12.13;;;;;;;22.05;74.50;99506.09;5122596;27;20100;-65
2023/06/03 05:47:32;;;;;;;9.93;8.70;;;;;;;22.19;74.29;99515.50;5126281;27;20031;-65
2023/06/03 05:49:57;;;;;;;11.70;9.00;;;;;;;22.55;74.20;99522.31;5127113;27;20046;-65
2023/06/03 05:52:23;;;;;;;10.98;8.90;;;;;;;22.73;72.63;99519.34;5126774;27;20028;-65
2023/06/03 05:54:48;;;;;;;11.43;8.30;;;;;;;22.86;72.75;99516.34;5125277;27;20035;-65
2023/06/03 05:57:14;;;;;;;11.40;9.18;;;;;;;23.00;72.13;99516.84;5120993;27;20356;-65
2023/06/03 05:59:39;;;;;;;8.65;7.82;;;;;;;23.10;69.48;99510.78;5126237;27;20054;-65
2023/06/03 06:02:06;;;;;;;12.18;8.95;;;;;;;23.11;68.98;99512.41;5123954;27;20031;-65
2023/06/03 06:04:31;;;;;;;9.63;8.40;;;;;;;23.26;68.50;99515.31;5122901;27;20098;-65
2023/06/03 06:06:57;;;;;;;10.48;8.50;;;;;;;23.27;68.24;99508.03;5121622;27;20353;-65
2023/06/03 06:09:22;;;;;;;10.10;8.75;;;;;;;23.24;68.07;99512.03;5125191;27;20035;-65
2023/06/03 06:11:47;;;;;;;11.40;8.40;;;;;;;23.42;67.29;99519.84;5124822;27;20313;-65
2023/06/03 06:14:13;;;;;;;11.52;8.35;;;;;;;23.29;67.97;99511.28;5122757;27;20031;-65
2023/06/03 06:16:38;;;;;;;9.70;7.15;;;;;;;23.43;66.96;99515.25;5122145;27;20038;-65
2023/06/03 06:19:04;;;;;;;9.85;7.10;;;;;;;23.28;66.84;99520.47;5126221;27;20202;-65
2023/06/03 06:21:29;;;;;;;7.47;6.68;;;;;;;23.49;64.36;99523.16;5132365;27;20036;-65
2023/06/03 06:23:55;;;;;;;7.50;6.00;;;;;;;23.65;63.54;99516.09;5121819;27;20048;-65
2023/06/03 06:26:21;;;;;;;7.30;5.40;;;;;;;23.80;63.48;99518.97;5124759;27;20217;-65
2023/06/03 06:28:46;;;;;;;7.05;5.68;;;;;;;23.87;62.46;99518.75;5126767;27;20027;-65
2023/06/03 06:31:13;;;;;;;7.03;6.32;;;;;;;24.02;61.96;99524.34;5120513;27;20052;-65
2023/06/03 06:33:40;;;;;;;6.85;6.15;;;;;;;24.07;60.45;99520.88;5125800;27;20337;-65
2023/06/03 06:36:30;;;;;;;9.15;6.47;;;;;;;24.16;59.56;99512.06;5124207;27;20145;-65
2023/06/03 06:38:56;;;;;;;5.88;5.28;;;;;;;24.27;58.58;99510.28;5126706;27;20065;-66
2023/06/03 06:41:25;;;;;;;6.90;5.60;;;;;;;24.47;58.84;99513.16;5125913;27;20127;-65
2023/06/03 06:43:52;;;;;;;6.57;5.60;;;;;;;24.58;59.14;99508.66;5126227;27;20295;-65
2023/06/03 06:46:18;;;;;;;8.85;6.43;;;;;;;24.37;58.60;99512.25;5124195;27;20035;-65
2023/06/03 06:48:43;;;;;;;10.25;5.55;;;;;;;24.70;58.86;99520.09;5124801;27;20791;-65
2023/06/03 06:51:09;;;;;;;9.30;6.05;;;;;;;24.81;57.63;99521.81;5124483;27;20027;-65
2023/06/03 06:53:36;;;;;;;8.23;6.00;;;;;;;24.93;55.95;99518.91;5122927;27;20035;-65
2023/06/03 06:56:08;;;;;;;7.97;5.70;;;;;;;25.02;57.18;99520.09;5120386;27;20151;-65
2023/06/03 06:58:36;;;;;;;8.32;5.72;;;;;;;25.05;57.99;99518.78;5121712;27;20036;-65
2023/06/03 07:01:05;;;;;;;6.32;5.55;;;;;;;25.41;57.18;99522.47;5122352;27;20035;-65
2023/06/03 07:03:31;;;;;;;6.68;5.45;;;;;;;25.53;55.56;99519.53;5123292;27;20019;-65
2023/06/03 07:05:56;;;;;;;9.20;5.95;;;;;;;25.60;54.44;99520.09;5126449;27;20076;-65
2023/06/03 07:08:22;;;;;;;7.05;5.50;;;;;;;25.73;55.71;99519.63;5121141;27;20049;-65
2023/06/03 07:10:48;;;;;;;6.55;5.50;;;;;;;25.94;54.52;99521.31;5125091;27;20415;-65
2023/06/03 07:13:15;;;;;;;8.40;5.82;;;;;;;26.02;53.91;99520.81;5137537;27;20118;-65
2023/06/03 07:15:41;;;;;;;8.77;7.85;;;;;;;26.12;52.66;99532.78;5122947;27;20077;-65
2023/06/03 07:18:09;;;;;;;7.53;6.60;;;;;;;26.43;51.89;99523.63;5124703;27;20331;-65
2023/06/03 07:20:38;;;;;;;6.20;5.35;;;;;;;26.57;51.83;99521.16;5123442;27;20063;-65
2023/06/03 07:23:08;;;;;;;8.00;5.82;;;;;;;26.92;52.55;99523.84;5121855;27;20047;-65
2023/06/03 07:25:45;;;;;;;9.23;8.25;;;;;;;26.89;50.06;99526.28;5119336;27;20039;-65
2023/06/03 07:28:13;;;;;;;6.10;5.50;;;;;;;27.07;50.32;99520.34;5123250;27;20027;-65
2023/06/03 07:30:40;;;;;;;8.82;5.00;;;;;;;27.40;48.37;99527.03;5122969;27;20039;-65
2023/06/03 07:33:07;;;;;;;5.53;5.03;;;;;;;27.64;47.69;99528.03;5121101;27;20428;-65
2023/06/03 07:35:36;;;;;;;6.22;5.50;;;;;;;27.73;45.74;99531.00;5120165;27;20093;-65
2023/06/03 07:38:05;;;;;;;6.13;5.00;;;;;;;27.86;47.03;99533.09;5132238;27;20098;-66
2023/06/03 07:40:43;;;;;;;5.80;5.05;;;;;;;27.91;47.72;99530.34;5132494;27;20237;-66
2023/06/03 07:43:11;;;;;;;5.43;4.78;;;;;;;27.91;45.96;99526.81;5129986;27;20351;-66
2023/06/03 07:45:37;;;;;;;6.72;6.03;;;;;;;27.90;46.70;99525.19;5121275;27;20062;-65
2023/06/03 07:48:03;;;;;;;6.72;4.43;;;;;;;28.03;44.57;99521.84;5124469;27;20027;-65
2023/06/03 07:50:30;;;;;;;5.68;4.65;;;;;;;27.96;44.79;99533.03;5120085;27;20380;-65
2023/06/03 07:53:01;;;;;;;6.43;5.43;;;;;;;27.79;46.09;99526.34;5122764;27;20031;-65
2023/06/03 07:55:43;;;;;;;5.72;4.70;;;;;;;27.80;44.21;99533.41;5120744;27;20030;-65
2023/06/03 07:58:10;;;;;;;7.32;5.60;;;;;;;27.61;44.79;99530.50;5125972;27;20066;-65
2023/06/03 08:00:39;;;;;;;5.60;4.95;;;;;;;27.49;46.18;99543.59;5139459;27;20035;-65
2023/06/03 08:03:06;;;;;;;5.13;4.63;;;;;;;27.65;45.96;99532.38;5139591;27;20058;-65
2023/06/03 08:05:36;;;;;;;6.95;6.07;;;;;;;27.60;45.68;99531.56;5133646;27;20043;-65
2023/06/03 08:08:07;;;;;;;7.43;4.97;;;;;;;27.76;46.23;99524.19;5138613;27;20027;-65
2023/06/03 08:10:34;;;;;;;6.93;5.97;;;;;;;27.59;43.00;99525.31;5139245;27;20302;-65
2023/06/03 08:13:01;;;;;;;7.32;6.05;;;;;;;27.45;42.64;99518.84;5139076;27;20242;-65
2023/06/03 08:15:32;;;;;;;10.07;5.97;;;;;;;27.42;45.68;99524.84;5139669;27;20035;-66
2023/06/03 08:17:58;;;;;;;7.00;5.00;;;;;;;27.43;46.37;99522.94;5138878;27;20190;-65
2023/06/03 08:20:26;;;;;;;6.35;5.60;;;;;;;27.47;44.47;99524.81;5138629;27;20042;-65
2023/06/03 08:22:52;;;;;;;6.10;5.30;;;;;;;27.41;46.59;99523.22;5137934;27;20039;-66
2023/06/03 08:25:17;;;;;;;7.68;6.50;;;;;;;27.36;44.63;99523.25;5138458;27;20039;-66
2023/06/03 08:27:42;;;;;;;6.78;4.57;;;;;;;27.47;46.39;99521.28;5138525;27;20034;-66
2023/06/03 08:30:09;;;;;;;11.40;6.28;;;;;;;27.54;45.98;99519.09;5139001;27;20035;-65
2023/06/03 08:32:38;;;;;;;7.65;5.13;;;;;;;27.55;45.24;99524.25;5138079;27;20061;-65
2023/06/03 08:35:04;;;;;;;6.22;4.95;;;;;;;27.51;45.62;99525.09;5137978;27;20035;-65
2023/06/03 08:37:31;;;;;;;5.43;4.50;;;;;;;27.37;44.78;99526.78;5138866;27;20037;-65
2023/06/03 08:39:57;;;;;;;5.80;4.65;;;;;;;27.47;44.88;99524.81;5139188;27;20035;-65
2023/06/03 08:42:27;;;;;;;7.40;4.63;;;;;;;27.33;45.23;99521.06;5138767;27;20033;-65
2023/06/03 08:45:04;;;;;;;4.95;4.38;;;;;;;27.45;45.79;99526.19;5139001;27;20127;-65
2023/06/03 08:47:54;;;;;;;4.85;4.32;;;;;;;27.61;45.67;99523.16;5131703;27;20035;-65
2023/06/03 08:50:22;;;;;;;5.82;5.18;;;;;;;27.71;43.69;99525.03;5132807;27;20023;-65
2023/06/03 08:52:51;;;;;;;7.07;4.93;;;;;;;27.72;43.78;99521.22;5139136;27;20213;-65
2023/06/03 08:55:17;;;;;;;7.57;4.63;;;;;;;27.61;44.06;99525.88;5138722;27;20237;-65
2023/06/03 08:57:51;;;;;;;6.35;4.80;;;;;;;27.48;43.07;99528.34;5138555;27;20422;-65
2023/06/03 09:00:26;;;;;;;5.60;5.03;;;;;;;27.48;43.49;99525.63;5138598;27;20043;-65
2023/06/03 09:02:52;;;;;;;5.88;4.70;;;;;;;27.52;44.09;99518.56;5137795;27;20039;-66
2023/06/03 09:05:22;;;;;;;5.93;4.60;;;;;;;27.45;46.82;99528.91;5137718;28;20345;-65
2023/06/03 09:07:49;;;;;;;7.18;5.18;;;;;;;27.18;45.42;99523.84;5138290;27;20076;-65
2023/06/03 09:10:17;;;;;;;7.50;5.30;;;;;;;26.65;48.10;99528.75;5137470;27;20039;-65
2023/06/03 09:12:46;;;;;;;5.95;4.53;;;;;;;26.65;48.18;99532.28;5141862;27;20035;-65
2023/06/03 09:15:16;;;;;;;7.82;4.85;;;;;;;26.76;48.16;99524.94;5142355;27;20332;-65
2023/06/03 09:17:42;;;;;;;5.97;4.75;;;;;;;26.83;45.88;99524.66;5142433;27;20031;-65
2023/06/03 09:20:09;;;;;;;5.70;4.70;;;;;;;26.80;47.03;99520.59;5142873;27;20340;-65
2023/06/03 09:22:35;;;;;;;7.43;4.93;;;;;;;26.60;48.29;99528.78;5142432;27;20305;-65
2023/06/03 09:25:02;;;;;;;6.28;4.85;;;;;;;26.70;48.40;99526.03;5142912;27;20035;-65
2023/06/03 09:27:27;;;;;;;5.85;4.80;;;;;;;26.63;46.61;99528.22;5141750;27;20038;-65
2023/06/03 09:29:54;;;;;;;8.00;5.13;;;;;;;26.61;48.67;99525.78;5142680;27;20053;-65
2023/06/03 09:32:20;;;;;;;6.85;5.28;;;;;;;26.66;49.08;99524.97;5142003;27;20034;-65
2023/06/03 09:34:49;;;;;;;6.57;4.82;;;;;;;26.71;48.71;99527.69;5142686;27;20047;-65
2023/06/03 09:37:15;;;;;;;7.07;5.18;;;;;;;26.80;48.52;99526.03;5142249;27;20335;-65
2023/06/03 09:39:41;;;;;;;10.93;7.35;;;;;;;26.85;49.39;99528.75;5142921;27;20129;-65
2023/06/03 09:42:06;;;;;;;8.10;5.10;;;;;;;26.76;50.96;99533.09;5142638;27;20602;-65
2023/06/03 09:44:43;;;;;;;8.13;5.25;;;;;;;26.69;46.30;99532.56;5142333;27;20066;-65
2023/06/03 09:47:11;;;;;;;9.27;4.80;;;;;;;26.70;47.10;99534.19;5141788;27;20031;-65
2023/06/03 09:49:36;;;;;;;5.47;4.68;;;;;;;26.70;48.82;99536.91;5142641;27;20057;-65
2023/06/03 09:52:06;;;;;;;5.45;4.60;;;;;;;26.70;48.82;99523.31;5142146;27;20035;-65
2023/06/03 09:54:32;;;;;;;6.10;4.70;;;;;;;26.69;49.01;99527.94;5124444;27;20031;-65
2023/06/03 09:57:10;;;;;;;6.60;4.57;;;;;;;26.67;51.43;99529.31;5141664;27;20360;-65
2023/06/03 09:59:35;;;;;;;4.75;4.22;;;;;;;26.59;47.88;99535.28;5142188;27;20340;-65
2023/06/03 10:02:01;;;;;;;5.38;4.00;;;;;;;26.69;46.46;99533.38;5142011;27;20031;-65
2023/06/03 10:04:46;;;;;;;5.45;4.20;;;;;;;26.66;44.31;99536.63;5141723;27;20039;-65
2023/06/03 10:07:17;;;;;;;5.25;4.13;;;;;;;26.77;47.05;99529.28;5141581;27;20033;-65
2023/06/03 10:09:44;;;;;;;5.38;4.30;;;;;;;26.69;45.83;99521.69;5142246;27;20035;-65
2023/06/03 10:12:11;;;;;;;4.57;4.10;;;;;;;26.70;46.49;99531.47;5141850;27;20035;-65
2023/06/03 10:14:45;;;;;;;5.03;4.55;;;;;;;26.72;48.07;99535.56;5142044;27;20039;-65
2023/06/03 10:17:12;;;;;;;6.32;4.43;;;;;;;26.77;48.83;99537.44;5141583;27;20035;-65
2023/06/03 10:19:39;;;;;;;5.55;4.32;;;;;;;26.93;50.09;99535.53;5139986;27;20035;-65
2023/06/03 10:22:06;;;;;;;6.22;4.18;;;;;;;26.91;48.68;99537.69;5123276;27;20027;-65
2023/06/03 10:24:34;;;;;;;6.32;4.10;;;;;;;26.86;48.42;99526.84;5132146;27;20114;-65
2023/06/03 10:27:04;;;;;;;5.78;3.83;;;;;;;26.78;46.80;99536.34;5122384;27;20031;-65
2023/06/03 10:29:30;;;;;;;6.30;4.13;;;;;;;26.72;51.09;99546.41;5132472;27;20038;-65
2023/06/03 10:31:58;;;;;;;6.53;4.03;;;;;;;26.73;49.58;99541.78;5126139;27;20106;-65
2023/06/03 10:34:23;;;;;;;4.70;4.20;;;;;;;26.56;47.10;99541.25;5126174;27;20057;-65
2023/06/03 10:36:56;;;;;;;5.68;4.35;;;;;;;26.52;48.78;99535.56;5121906;27;20039;-65
2023/06/03 10:39:26;;;;;;;5.13;4.28;;;;;;;26.46;47.46;99533.13;5125462;27;20215;-65
2023/06/03 10:41:58;;;;;;;4.70;4.20;;;;;;;26.34;49.14;99539.63;5123647;27;20123;-65
2023/06/03 10:44:23;;;;;;;4.63;3.83;;;;;;;26.37;51.06;99527.41;5122799;27;20040;-65
2023/06/03 10:46:59;;;;;;;5.88;4.65;;;;;;;26.33;51.97;99529.84;5124130;27;20054;-65
2023/06/03 10:49:30;;;;;;;5.18;3.80;;;;;;;26.13;49.40;99521.66;5124208;27;20200;-65
2023/06/03 10:52:27;;;;;;;5.50;4.13;;;;;;;26.03;51.34;99525.16;5121922;27;20030;-65
2023/06/03 10:55:20;;;;;;;11.38;4.10;;;;;;;26.15;51.68;99526.81;5121822;27;20301;-65
2023/06/03 10:57:49;;;;;;;6.53;5.07;;;;;;;26.16;52.14;99518.41;5121494;27;20041;-65
2023/06/03 11:01:03;;;;;;;5.55;4.65;;;;;;;26.21;50.68;99517.59;5124141;27;20031;-65
2023/06/03 11:03:31;;;;;;;12.52;4.68;;;;;;;26.17;51.36;99519.22;5116623;27;20351;-65
2023/06/03 11:06:21;;;;;;;5.22;4.25;;;;;;;26.14;49.62;99526.00;5133165;27;20050;-65
2023/06/03 11:09:08;;;;;;;6.68;3.53;;;;;;;26.15;50.26;99521.38;5132243;27;20038;-65
2023/06/03 11:11:52;;;;;;;4.50;4.00;;;;;;;26.29;52.97;99517.06;5132129;27;20294;-65
2023/06/03 11:14:27;;;;;;;5.07;3.95;;;;;;;26.31;52.80;99528.47;5132620;27;20039;-65
2023/06/03 11:16:58;;;;;;;5.13;3.83;;;;;;;26.32;52.71;99522.78;5135844;27;20057;-65
2023/06/03 11:19:33;;;;;;;5.32;3.92;;;;;;;26.48;54.87;99523.63;5133015;27;20308;-65
2023/06/03 11:21:59;;;;;;;4.30;3.42;;;;;;;26.25;53.09;99532.25;5134717;27;20371;-65
2023/06/03 11:24:41;;;;;;;4.72;4.05;;;;;;;26.05;52.94;99528.44;5132738;27;20039;-65
2023/06/03 11:27:30;;;;;;;5.20;3.72;;;;;;;26.19;54.58;99525.19;5131311;27;20035;-65
2023/06/03 11:29:57;;;;;;;5.90;4.57;;;;;;;26.16;53.27;99523.84;5132816;27;20051;-65
2023/06/03 11:32:23;;;;;;;5.22;4.22;;;;;;;26.15;54.41;99529.53;5134239;27;20041;-65